Time;durP1;ratioP1;P1;durP2;ratioP2;P2;SDS_P1;SDS_P2;PMS_P1;PMS_P2;Temp;Humidity;BMP_temperature;BMP_pressure;BME280_temperature;BME280_humidity;BME280_pressure;Samples;Min_cycle;Max_cycle;Signal;HPM_P1;HPM_P2
2021/12/05 00:21:58;;;;;;;;;;;;;;;;;;5115201;28;19910;-70
2021/12/05 00:24:24;;;;;;;;;;;;;;;;;;5114235;28;19903;-70
2021/12/05 00:26:53;;;;;;;;;;;;;;;;;;5106541;28;19939;-68
2021/12/05 00:32:10;;;;;;;;;;;;;;;;;;5115101;28;19994;-73
2021/12/05 00:34:56;;;;;;;;;;;;;;;;;;5115093;28;19904;-71
2021/12/05 01:09:18;;;;;;;;;;;;;;;;;;5097623;28;19987;-70
2021/12/05 01:16:42;;;;;;;;;;;;;;;;;;5112593;28;20351;-66
2021/12/05 01:19:08;;;;;;;;;;;;;;;;;;5099260;28;19922;-73
2021/12/05 01:21:35;;;;;;;;;;;;;;;;;;5095374;28;19904;-70
2021/12/05 01:24:07;;;;;;;;;;;;;;;;;;5113553;28;19918;-65
2021/12/05 01:26:44;;;;;;;;;;;;;;;;;;5113398;28;19911;-66
2021/12/05 01:29:30;;;;;;;;;;;;;;;;;;5114283;28;19911;-66
2021/12/05 02:37:51;;;;;;;;;;;;;;;;;;5113285;28;19916;-73
2021/12/05 02:43:56;;;;;;;;;;;;;;;;;;5113562;28;19914;-72
2021/12/05 02:45:46;;;;;;;;;;;;;;;;;;5103720;28;19911;-65
2021/12/05 02:48:12;;;;;;;;;;;;;;;;;;5113273;28;19915;-65
2021/12/05 02:50:38;;;;;;;;;;;;;;;;;;5112816;28;19995;-77
2021/12/05 02:53:32;;;;;;;;;;;;;;;;;;5113168;28;20290;-71
2021/12/05 02:55:52;;;;;;;;;;;;;;;;;;5112155;28;19910;-65
2021/12/05 03:01:20;;;;;;;;;;;;;;;;;;5103979;28;19966;-65
2021/12/05 03:03:46;;;;;;;;;;;;;;;;;;5113199;28;19904;-65
2021/12/05 03:06:17;;;;;;;;;;;;;;;;;;5112983;28;19907;-66
2021/12/05 03:08:43;;;;;;;;;;;;;;;;;;5113114;28;20002;-63
2021/12/05 03:11:09;;;;;;;;;;;;;;;;;;5113158;28;20373;-64
2021/12/05 03:13:35;;;;;;;;;;;;;;;;;;5113290;28;20379;-72
2021/12/05 03:16:01;;;;;;;;;;;;;;;;;;5095010;28;19904;-75
2021/12/05 03:18:27;;;;;;;;;;;;;;;;;;5094528;28;19978;-63
2021/12/05 03:20:53;;;;;;;;;;;;;;;;;;5112807;28;19943;-63
2021/12/05 03:23:19;;;;;;;;;;;;;;;;;;5113028;28;19904;-75
2021/12/05 03:25:45;;;;;;;;;;;;;;;;;;5113103;28;19981;-63
2021/12/05 03:28:11;;;;;;;;;;;;;;;;;;5112999;28;19903;-71
2021/12/05 03:30:37;;;;;;;;;;;;;;;;;;5094677;28;19903;-64
2021/12/05 03:33:02;;;;;;;;;;;;;;;;;;5112987;28;19911;-72
2021/12/05 03:35:28;;;;;;;;;;;;;;;;;;5094777;28;19914;-64
2021/12/05 03:37:54;;;;;;;;;;;;;;;;;;5112794;28;19934;-64
2021/12/05 03:40:20;;;;;;;;;;;;;;;;;;5112868;28;19908;-70
2021/12/05 03:42:46;;;;;;;;;;;;;;;;;;5092759;28;19953;-67
2021/12/05 03:45:12;;;;;;;;;;;;;;;;;;5112989;28;20316;-69
2021/12/05 03:47:38;;;;;;;;;;;;;;;;;;5112664;28;19923;-64
2021/12/05 03:50:04;;;;;;;;;;;;;;;;;;5112926;28;19903;-73
2021/12/05 03:52:30;;;;;;;;;;;;;;;;;;5112772;28;19949;-66
2021/12/05 03:54:56;;;;;;;;;;;;;;;;;;5114615;28;19911;-67
2021/12/05 03:57:22;;;;;;;;;;;;;;;;;;5117650;28;19911;-66
2021/12/05 03:59:48;;;;;;;;;;;;;;;;;;5113053;28;20429;-67
2021/12/05 04:02:14;;;;;;;;;;;;;;;;;;5115028;28;19994;-65
2021/12/05 04:04:40;;;;;;;;;;;;;;;;;;5116350;28;19994;-75
2021/12/05 04:07:06;;;;;;;;;;;;;;;;;;5116299;28;19903;-65
2021/12/05 04:09:33;;;;;;;;;;;;;;;;;;5116176;28;19911;-73
2021/12/05 04:12:01;;;;;;;;;;;;;;;;;;5116180;28;20676;-64
2021/12/05 04:14:27;;;;;;;;;;;;;;;;;;5116132;28;19911;-72
2021/12/05 04:16:53;;;;;;;;;;;;;;;;;;5116098;28;19908;-72
2021/12/05 04:19:19;;;;;;;;;;;;;;;;;;5097878;28;19911;-73
2021/12/05 04:21:44;;;;;;;;;;;;;;;;;;5116093;28;20305;-67
2021/12/05 04:24:10;;;;;;;;;;;;;;;;;;5115737;28;19904;-74
2021/12/05 04:26:36;;;;;;;;;;;;;;;;;;5097318;28;19938;-65
2021/12/05 04:29:02;;;;;;;;;;;;;;;;;;5115867;28;19904;-73
2021/12/05 04:31:28;;;;;;;;;;;;;;;;;;5115766;28;19903;-72
2021/12/05 04:33:54;;;;;;;;;;;;;;;;;;5097376;28;19945;-76
2021/12/05 04:36:20;;;;;;;;;;;;;;;;;;5115765;28;19954;-76
2021/12/05 04:38:46;;;;;;;;;;;;;;;;;;5116008;28;20404;-70
2021/12/05 04:41:12;;;;;;;;;;;;;;;;;;5097428;28;19994;-69
2021/12/05 04:43:38;;;;;;;;;;;;;;;;;;5115423;28;19970;-66
2021/12/05 04:46:04;;;;;;;;;;;;;;;;;;5115093;28;19995;-75
2021/12/05 04:48:30;;;;;;;;;;;;;;;;;;5097263;28;19951;-75
2021/12/05 04:50:56;;;;;;;;;;;;;;;;;;5115445;28;19907;-78
2021/12/05 04:53:26;;;;;;;;;;;;;;;;;;5097553;28;19911;-75
2021/12/05 04:55:52;;;;;;;;;;;;;;;;;;5115337;28;19911;-77
2021/12/05 04:58:18;;;;;;;;;;;;;;;;;;5115182;28;19997;-79
2021/12/05 05:00:44;;;;;;;;;;;;;;;;;;5115285;28;20343;-65
2021/12/05 05:03:10;;;;;;;;;;;;;;;;;;5115049;28;19903;-71
2021/12/05 05:05:38;;;;;;;;;;;;;;;;;;5115202;28;19939;-67
2021/12/05 05:08:04;;;;;;;;;;;;;;;;;;5115031;28;19904;-75
2021/12/05 05:10:30;;;;;;;;;;;;;;;;;;5096455;28;19911;-78
2021/12/05 05:12:56;;;;;;;;;;;;;;;;;;5114684;28;20050;-75
2021/12/05 05:15:24;;;;;;;;;;;;;;;;;;5115171;28;19910;-76
2021/12/05 05:17:51;;;;;;;;;;;;;;;;;;5114842;28;19911;-71
2021/12/05 05:20:28;;;;;;;;;;;;;;;;;;5114800;28;19903;-68
2021/12/05 05:46:59;;;;;;;;;;;;;;;;;;5093428;28;19923;-72
2021/12/05 05:49:37;;;;;;;;;;;;;;;;;;5094306;28;19904;-74
2021/12/05 05:52:03;;;;;;;;;;;;;;;;;;5093888;28;19995;-75
2021/12/05 05:54:29;;;;;;;;;;;;;;;;;;5093849;28;19947;-72
2021/12/05 05:57:09;;;;;;;;;;;;;;;;;;5075398;28;19908;-69
2021/12/05 05:59:48;;;;;;;;;;;;;;;;;;5093572;28;19911;-73
2021/12/05 06:04:40;;;;;;;;;;;;;;;;;;5093997;28;20275;-74
2021/12/05 06:07:08;;;;;;;;;;;;;;;;;;5093625;28;19942;-74
2021/12/05 06:09:34;;;;;;;;;;;;;;;;;;5093397;28;19904;-74
2021/12/05 06:12:00;;;;;;;;;;;;;;;;;;5093486;28;19904;-74
2021/12/05 06:14:28;;;;;;;;;;;;;;;;;;5093527;28;19958;-70
2021/12/05 06:16:54;;;;;;;;;;;;;;;;;;5093384;28;19908;-74
2021/12/05 06:19:20;;;;;;;;;;;;;;;;;;5093329;28;19908;-73
2021/12/05 06:21:46;;;;;;;;;;;;;;;;;;5075201;28;20274;-74
2021/12/05 06:24:12;;;;;;;;;;;;;;;;;;5092591;28;19900;-75
2021/12/05 06:26:40;;;;;;;;;;;;;;;;;;5092959;28;20355;-73
2021/12/05 06:37:14;;;;;;;;;;;;;;;;;;5092612;28;20335;-67
2021/12/05 06:47:42;;;;;;;;;;;;;;;;;;5092589;28;20455;-67
2021/12/05 06:50:08;;;;;;;;;;;;;;;;;;5098379;28;19912;-67
2021/12/05 06:52:34;;;;;;;;;;;;;;;;;;5101106;28;19904;-74
2021/12/05 06:55:00;;;;;;;;;;;;;;;;;;5092608;28;19908;-72
2021/12/05 06:57:26;;;;;;;;;;;;;;;;;;5092384;28;20011;-66
2021/12/05 06:59:52;;;;;;;;;;;;;;;;;;5092440;28;19947;-70
2021/12/05 07:02:18;;;;;;;;;;;;;;;;;;5093062;28;19911;-79
2021/12/05 07:07:22;;;;;;;;;;;;;;;;;;5093150;28;19904;-74
2021/12/05 07:09:48;;;;;;;;;;;;;;;;;;5093553;28;20278;-72
2021/12/05 07:15:09;;;;;;;;;;;;;;;;;;5093334;28;19947;-80
2021/12/05 07:25:14;;;;;;;;;;;;;;;;;;5093135;28;19934;-74
2021/12/05 07:42:05;;;;;;;;;;;;;;;;;;5095826;28;19957;-75
2021/12/05 07:43:57;;;;;;;;;;;;;;;;;;5088784;28;19930;-75
2021/12/05 07:46:22;;;;;;;;;;;;;;;;;;5078117;28;20339;-76
2021/12/05 07:48:49;;;;;;;;;;;;;;;;;;5096402;28;19912;-73
2021/12/05 07:51:24;;;;;;;;;;;;;;;;;;5078255;28;20313;-72
2021/12/05 07:54:02;;;;;;;;;;;;;;;;;;5096181;28;19900;-76
2021/12/05 08:15:24;;;;;;;;;;;;;;;;;;5115946;28;19911;-72
2021/12/05 08:17:54;;;;;;;;;;;;;;;;;;5098187;28;19912;-75
2021/12/05 08:20:20;;;;;;;;;;;;;;;;;;5095742;28;19964;-75
2021/12/05 08:22:46;;;;;;;;;;;;;;;;;;5095712;28;20366;-75
2021/12/05 08:25:13;;;;;;;;;;;;;;;;;;5095382;28;20014;-75
2021/12/05 08:27:42;;;;;;;;;;;;;;;;;;5095373;28;19904;-75
2021/12/05 08:30:09;;;;;;;;;;;;;;;;;;5114061;28;19910;-74
2021/12/05 08:32:51;;;;;;;;;;;;;;;;;;5115714;28;19907;-76
2021/12/05 08:35:41;;;;;;;;;;;;;;;;;;5115917;28;20251;-70
2021/12/05 10:07:01;;;;;;;;;;;;;;;;;;5113893;28;19911;-67
2021/12/05 10:36:06;;;;;;;;;;;;;;;;;;5113484;28;20369;-65
2021/12/05 10:38:37;;;;;;;;;;;;;;;;;;5113174;28;19946;-64
2021/12/05 10:41:20;;;;;;;;;;;;;;;;;;5113328;28;19962;-65
2021/12/05 10:43:46;;;;;;;;;;;;;;;;;;5113280;28;19995;-65
2021/12/05 10:46:12;;;;;;;;;;;;;;;;;;5112971;28;19947;-75
2021/12/05 10:48:37;;;;;;;;;;;;;;;;;;5094949;28;19968;-69
2021/12/05 10:51:05;;;;;;;;;;;;;;;;;;5113467;28;19919;-65
2021/12/05 10:53:31;;;;;;;;;;;;;;;;;;5095114;28;20369;-65
2021/12/05 10:55:57;;;;;;;;;;;;;;;;;;5113084;28;19999;-65
2021/12/05 10:58:30;;;;;;;;;;;;;;;;;;5094934;28;20317;-67
2021/12/05 11:00:55;;;;;;;;;;;;;;;;;;5113190;28;19903;-68
2021/12/05 11:03:24;;;;;;;;;;;;;;;;;;5113107;28;20419;-65
2021/12/05 11:05:50;;;;;;;;;;;;;;;;;;5113233;28;19908;-65
2021/12/05 11:08:16;;;;;;;;;;;;;;;;;;5112988;28;19904;-67
2021/12/05 11:10:41;;;;;;;;;;;;;;;;;;5114958;28;20247;-65
2021/12/05 11:13:07;;;;;;;;;;;;;;;;;;5117264;28;19948;-69
2021/12/05 11:15:33;;;;;;;;;;;;;;;;;;5098857;28;20052;-66
2021/12/05 11:18:02;;;;;;;;;;;;;;;;;;5098687;28;20056;-65
2021/12/05 11:20:33;;;;;;;;;;;;;;;;;;5117025;28;20271;-65
2021/12/05 11:23:00;;;;;;;;;;;;;;;;;;5117043;28;19904;-70
2021/12/05 11:25:27;;;;;;;;;;;;;;;;;;5116939;28;19903;-68
2021/12/05 11:27:53;;;;;;;;;;;;;;;;;;5116904;28;20371;-66
2021/12/05 11:30:19;;;;;;;;;;;;;;;;;;5117034;28;19903;-67
2021/12/05 11:32:45;;;;;;;;;;;;;;;;;;5116873;28;19903;-68
2021/12/05 11:35:11;;;;;;;;;;;;;;;;;;5116787;28;20251;-65
2021/12/05 11:37:37;;;;;;;;;;;;;;;;;;5116610;28;19953;-65
2021/12/05 11:40:03;;;;;;;;;;;;;;;;;;5116746;28;19904;-72
2021/12/05 11:42:29;;;;;;;;;;;;;;;;;;5098269;28;19904;-66
2021/12/05 11:44:58;;;;;;;;;;;;;;;;;;5116484;28;19966;-65
2021/12/05 11:47:24;;;;;;;;;;;;;;;;;;5116366;28;19915;-66
2021/12/05 11:49:50;;;;;;;;;;;;;;;;;;5116660;28;19911;-65
2021/12/05 11:52:16;;;;;;;;;;;;;;;;;;5116517;28;19986;-65
2021/12/05 11:54:42;;;;;;;;;;;;;;;;;;5116507;28;20045;-64
2021/12/05 11:57:09;;;;;;;;;;;;;;;;;;5116525;28;20088;-67
2021/12/05 11:59:35;;;;;;;;;;;;;;;;;;5096427;28;19947;-65
2021/12/05 12:02:01;;;;;;;;;;;;;;;;;;5116445;28;20071;-71
2021/12/05 12:04:27;;;;;;;;;;;;;;;;;;5116560;28;19924;-69
2021/12/05 12:06:53;;;;;;;;;;;;;;;;;;5116519;28;20392;-65
2021/12/05 12:09:19;;;;;;;;;;;;;;;;;;5099217;28;19903;-65
2021/12/05 12:11:45;;;;;;;;;;;;;;;;;;5098940;28;19999;-65
2021/12/05 12:14:11;;;;;;;;;;;;;;;;;;5115934;28;20010;-63
2021/12/05 12:16:37;;;;;;;;;;;;;;;;;;5115920;28;20014;-64
2021/12/05 12:19:03;;;;;;;;;;;;;;;;;;5115927;28;20429;-64
2021/12/05 12:21:36;;;;;;;;;;;;;;;;;;5115270;28;19910;-64
2021/12/05 12:24:02;;;;;;;;;;;;;;;;;;5115757;28;19903;-63
2021/12/05 12:26:28;;;;;;;;;;;;;;;;;;5115776;28;20255;-64
2021/12/05 12:28:53;;;;;;;;;;;;;;;;;;5115673;28;19903;-63
2021/12/05 12:31:19;;;;;;;;;;;;;;;;;;5097171;28;20390;-64
2021/12/05 12:33:45;;;;;;;;;;;;;;;;;;5115628;28;20007;-65
2021/12/05 12:36:11;;;;;;;;;;;;;;;;;;5115951;28;20000;-72
2021/12/05 12:38:37;;;;;;;;;;;;;;;;;;5115520;28;20005;-64
2021/12/05 12:41:03;;;;;;;;;;;;;;;;;;5114142;28;19950;-63
2021/12/05 12:43:29;;;;;;;;;;;;;;;;;;5115220;28;19900;-71
2021/12/05 12:45:55;;;;;;;;;;;;;;;;;;5107434;28;20442;-70
2021/12/05 12:48:25;;;;;;;;;;;;;;;;;;5094878;28;19946;-71
2021/12/05 12:50:51;;;;;;;;;;;;;;;;;;5104140;28;20274;-75
2021/12/05 12:53:17;;;;;;;;;;;;;;;;;;5115364;28;20398;-70
2021/12/05 12:55:43;;;;;;;;;;;;;;;;;;5114898;28;19908;-75
2021/12/05 12:58:10;;;;;;;;;;;;;;;;;;5115049;28;19980;-77
2021/12/05 13:00:36;;;;;;;;;;;;;;;;;;5096703;28;19903;-72
2021/12/05 13:03:14;;;;;;;;;;;;;;;;;;5105208;28;20037;-77
2021/12/05 13:10:59;;;;;;;;;;;;;;;;;;5094291;28;20489;-65
2021/12/05 13:13:27;;;;;;;;;;;;;;;;;;5094254;28;19904;-63
2021/12/05 13:15:53;;;;;;;;;;;;;;;;;;5094134;28;19901;-70
2021/12/05 13:18:23;;;;;;;;;;;;;;;;;;5094278;28;19912;-74
2021/12/05 13:20:53;;;;;;;;;;;;;;;;;;5094281;28;20354;-77
2021/12/05 13:23:19;;;;;;;;;;;;;;;;;;5075824;28;20355;-76
2021/12/05 13:25:45;;;;;;;;;;;;;;;;;;5076017;28;19911;-77
2021/12/05 13:28:11;;;;;;;;;;;;;;;;;;5093996;28;19911;-71
2021/12/05 13:30:37;;;;;;;;;;;;;;;;;;5094273;28;19911;-78
2021/12/05 13:33:03;;;;;;;;;;;;;;;;;;5093847;28;20275;-79
2021/12/05 13:35:32;;;;;;;;;;;;;;;;;;5093693;28;19912;-66
2021/12/05 13:38:00;;;;;;;;;;;;;;;;;;5093725;28;20283;-74
2021/12/05 13:40:26;;;;;;;;;;;;;;;;;;5110489;28;19910;-73
2021/12/05 13:42:52;;;;;;;;;;;;;;;;;;5114248;28;19910;-64
2021/12/05 13:45:18;;;;;;;;;;;;;;;;;;5113690;28;19900;-70
2021/12/05 13:47:44;;;;;;;;;;;;;;;;;;5113620;28;19916;-67
2021/12/05 13:50:10;;;;;;;;;;;;;;;;;;5095651;28;19990;-65
2021/12/05 13:55:20;;;;;;;;;;;;;;;;;;5113430;28;19910;-67
2021/12/05 13:57:46;;;;;;;;;;;;;;;;;;5113622;28;19949;-71
2021/12/05 14:00:12;;;;;;;;;;;;;;;;;;5098461;28;19908;-66
2021/12/05 14:02:38;;;;;;;;;;;;;;;;;;5093246;28;20359;-66
2021/12/05 14:05:04;;;;;;;;;;;;;;;;;;5092954;28;19904;-75
2021/12/05 14:07:30;;;;;;;;;;;;;;;;;;5092822;28;19911;-67
2021/12/05 14:09:57;;;;;;;;;;;;;;;;;;5095956;28;19904;-71
2021/12/05 14:12:37;;;;;;;;;;;;;;;;;;5112171;28;19907;-77
2021/12/05 14:15:03;;;;;;;;;;;;;;;;;;5113206;28;19915;-64
2021/12/05 14:17:29;;;;;;;;;;;;;;;;;;5095123;28;19911;-64
2021/12/05 14:19:57;;;;;;;;;;;;;;;;;;5094869;28;19903;-64
2021/12/05 14:22:23;;;;;;;;;;;;;;;;;;5112937;28;19903;-73
2021/12/05 14:24:49;;;;;;;;;;;;;;;;;;5113126;28;19961;-66
2021/12/05 14:27:14;;;;;;;;;;;;;;;;;;5112464;28;19907;-74
2021/12/05 14:29:40;;;;;;;;;;;;;;;;;;5112099;28;19903;-69
2021/12/05 14:32:06;;;;;;;;;;;;;;;;;;5102270;28;19903;-73
2021/12/05 14:34:32;;;;;;;;;;;;;;;;;;5101790;28;19907;-66
2021/12/05 14:36:58;;;;;;;;;;;;;;;;;;5102280;28;20402;-65
2021/12/05 14:39:25;;;;;;;;;;;;;;;;;;5112366;28;19943;-67
2021/12/05 14:41:51;;;;;;;;;;;;;;;;;;5112901;28;19911;-67
2021/12/05 14:44:18;;;;;;;;;;;;;;;;;;5112598;28;19918;-64
2021/12/05 14:46:43;;;;;;;;;;;;;;;;;;5112322;28;19967;-65
2021/12/05 14:49:09;;;;;;;;;;;;;;;;;;5116386;28;19938;-76
2021/12/05 14:51:35;;;;;;;;;;;;;;;;;;5120843;28;19903;-64
2021/12/05 14:54:01;;;;;;;;;;;;;;;;;;5121558;28;19911;-70
2021/12/05 14:56:27;;;;;;;;;;;;;;;;;;5117367;28;19900;-65
2021/12/05 14:58:53;;;;;;;;;;;;;;;;;;5113322;28;20010;-76
2021/12/05 15:01:21;;;;;;;;;;;;;;;;;;5112573;28;19965;-78
2021/12/05 15:03:46;;;;;;;;;;;;;;;;;;5112785;28;19994;-78
2021/12/05 15:06:12;;;;;;;;;;;;;;;;;;5113166;28;19958;-78
2021/12/05 15:08:38;;;;;;;;;;;;;;;;;;5113326;28;19957;-70
2021/12/05 15:11:04;;;;;;;;;;;;;;;;;;5112902;28;20391;-72
2021/12/05 15:13:30;;;;;;;;;;;;;;;;;;5112322;28;19941;-72
2021/12/05 15:15:56;;;;;;;;;;;;;;;;;;5112029;28;19939;-68
2021/12/05 15:18:24;;;;;;;;;;;;;;;;;;5112168;28;19988;-74
2021/12/05 15:20:50;;;;;;;;;;;;;;;;;;5113356;28;19911;-71
2021/12/05 15:23:16;;;;;;;;;;;;;;;;;;5094814;28;19900;-73
2021/12/05 15:25:42;;;;;;;;;;;;;;;;;;5101801;28;19907;-70
2021/12/05 15:28:08;;;;;;;;;;;;;;;;;;5111543;28;19903;-65
2021/12/05 15:30:34;;;;;;;;;;;;;;;;;;5105289;28;19907;-70
2021/12/05 15:33:00;;;;;;;;;;;;;;;;;;5118414;28;19908;-73
2021/12/05 15:35:26;;;;;;;;;;;;;;;;;;5113192;28;19904;-74
2021/12/05 15:37:52;;;;;;;;;;;;;;;;;;5112105;28;20446;-67
2021/12/05 15:40:17;;;;;;;;;;;;;;;;;;5096253;28;19912;-75
2021/12/05 15:42:43;;;;;;;;;;;;;;;;;;5091719;28;19904;-74
2021/12/05 15:45:09;;;;;;;;;;;;;;;;;;5073846;28;19919;-73
2021/12/05 15:47:36;;;;;;;;;;;;;;;;;;5073592;28;19915;-75
2021/12/05 15:50:02;;;;;;;;;;;;;;;;;;5073689;28;20368;-73
2021/12/05 15:52:28;;;;;;;;;;;;;;;;;;5091915;28;19911;-74
2021/12/05 15:54:55;;;;;;;;;;;;;;;;;;5073651;28;19900;-72
2021/12/05 15:57:26;;;;;;;;;;;;;;;;;;5094492;28;20374;-69
2021/12/05 15:59:52;;;;;;;;;;;;;;;;;;5087410;28;19912;-73
2021/12/05 16:02:18;;;;;;;;;;;;;;;;;;5116504;28;20436;-67
2021/12/05 16:04:44;;;;;;;;;;;;;;;;;;5115984;28;20353;-69
2021/12/05 16:07:10;;;;;;;;;;;;;;;;;;5116028;28;19904;-64
2021/12/05 16:09:36;;;;;;;;;;;;;;;;;;5116145;28;19914;-72
2021/12/05 16:12:02;;;;;;;;;;;;;;;;;;5115939;28;19904;-74
2021/12/05 16:14:28;;;;;;;;;;;;;;;;;;5116367;28;20289;-73
2021/12/05 16:16:54;;;;;;;;;;;;;;;;;;5115940;28;20002;-64
2021/12/05 16:19:20;;;;;;;;;;;;;;;;;;5097853;28;19934;-65
2021/12/05 16:21:46;;;;;;;;;;;;;;;;;;5116319;28;20347;-75
2021/12/05 16:24:13;;;;;;;;;;;;;;;;;;5115720;28;19903;-69
2021/12/05 16:26:39;;;;;;;;;;;;;;;;;;5115738;28;19912;-72
2021/12/05 16:29:05;;;;;;;;;;;;;;;;;;5116160;28;20525;-64
2021/12/05 16:31:31;;;;;;;;;;;;;;;;;;5121021;28;19914;-64
2021/12/05 16:33:57;;;;;;;;;;;;;;;;;;5116271;28;19903;-67
2021/12/05 16:36:23;;;;;;;;;;;;;;;;;;5097103;28;19904;-70
2021/12/05 16:38:50;;;;;;;;;;;;;;;;;;5111990;28;19912;-68
2021/12/05 16:41:16;;;;;;;;;;;;;;;;;;5076757;28;19919;-70
2021/12/05 16:43:42;;;;;;;;;;;;;;;;;;5094775;28;19965;-74
2021/12/05 16:46:07;;;;;;;;;;;;;;;;;;5094706;28;19904;-74
2021/12/05 16:48:33;;;;;;;;;;;;;;;;;;5094677;28;20260;-67
2021/12/05 16:50:59;;;;;;;;;;;;;;;;;;5094900;28;19904;-65
2021/12/05 16:53:25;;;;;;;;;;;;;;;;;;5094741;28;20363;-71
2021/12/05 16:55:58;;;;;;;;;;;;;;;;;;5094705;28;19904;-73
2021/12/05 16:58:24;;;;;;;;;;;;;;;;;;5094434;28;19943;-79
2021/12/05 17:00:52;;;;;;;;;;;;;;;;;;5094409;28;19943;-70
2021/12/05 17:03:18;;;;;;;;;;;;;;;;;;5094225;28;19904;-72
2021/12/05 17:05:44;;;;;;;;;;;;;;;;;;5094463;28;19900;-71
2021/12/05 17:08:13;;;;;;;;;;;;;;;;;;5075671;28;20003;-69
2021/12/05 17:10:39;;;;;;;;;;;;;;;;;;5094570;28;19900;-71
2021/12/05 17:13:05;;;;;;;;;;;;;;;;;;5094498;28;19911;-70
2021/12/05 17:15:31;;;;;;;;;;;;;;;;;;5076579;28;19904;-77
2021/12/05 17:18:02;;;;;;;;;;;;;;;;;;5094376;28;19908;-75
2021/12/05 17:20:28;;;;;;;;;;;;;;;;;;5076632;28;19951;-72
2021/12/05 17:22:54;;;;;;;;;;;;;;;;;;5094263;28;20398;-63
2021/12/05 17:25:20;;;;;;;;;;;;;;;;;;5075519;28;19911;-65
2021/12/05 17:27:46;;;;;;;;;;;;;;;;;;5093966;28;19904;-64
2021/12/05 17:30:12;;;;;;;;;;;;;;;;;;5096233;28;19950;-67
2021/12/05 17:32:38;;;;;;;;;;;;;;;;;;5081067;28;20373;-64
2021/12/05 17:35:04;;;;;;;;;;;;;;;;;;5094933;28;19904;-76
2021/12/05 17:37:30;;;;;;;;;;;;;;;;;;5093808;28;19908;-73
2021/12/05 17:39:56;;;;;;;;;;;;;;;;;;5106333;28;19911;-76
2021/12/05 17:42:22;;;;;;;;;;;;;;;;;;5114281;28;20007;-77
2021/12/05 17:44:47;;;;;;;;;;;;;;;;;;5114267;28;19910;-67
2021/12/05 17:47:13;;;;;;;;;;;;;;;;;;5114063;28;20006;-69
2021/12/05 17:49:39;;;;;;;;;;;;;;;;;;5113925;28;19908;-75
2021/12/05 17:52:05;;;;;;;;;;;;;;;;;;5114240;28;19910;-78
2021/12/05 17:54:39;;;;;;;;;;;;;;;;;;5095984;28;20328;-74
2021/12/05 17:57:12;;;;;;;;;;;;;;;;;;5114100;28;19904;-69
2021/12/05 18:04:50;;;;;;;;;;;;;;;;;;5114448;28;19911;-72
2021/12/05 18:07:16;;;;;;;;;;;;;;;;;;5113926;28;20319;-72
2021/12/05 18:09:42;;;;;;;;;;;;;;;;;;5113525;28;19903;-69
2021/12/05 18:12:12;;;;;;;;;;;;;;;;;;5113466;28;19904;-68
2021/12/05 18:14:38;;;;;;;;;;;;;;;;;;5113675;28;19957;-66
2021/12/05 18:17:04;;;;;;;;;;;;;;;;;;5113734;28;19998;-68
2021/12/05 18:19:30;;;;;;;;;;;;;;;;;;5113107;28;19940;-64
2021/12/05 18:21:56;;;;;;;;;;;;;;;;;;5113706;28;19946;-75
2021/12/05 18:24:22;;;;;;;;;;;;;;;;;;5113641;28;20389;-77
2021/12/05 18:26:48;;;;;;;;;;;;;;;;;;5113700;28;19942;-68
2021/12/05 18:29:16;;;;;;;;;;;;;;;;;;5112992;28;20400;-77
2021/12/05 18:31:42;;;;;;;;;;;;;;;;;;5113363;28;20010;-78
2021/12/05 18:34:08;;;;;;;;;;;;;;;;;;5113245;28;19956;-76
2021/12/05 18:36:34;;;;;;;;;;;;;;;;;;5095001;28;19983;-72
2021/12/05 18:39:00;;;;;;;;;;;;;;;;;;5113284;28;19939;-73
2021/12/05 18:41:27;;;;;;;;;;;;;;;;;;5113347;28;19943;-74
2021/12/05 18:43:53;;;;;;;;;;;;;;;;;;5113193;28;19911;-68
2021/12/05 18:46:19;;;;;;;;;;;;;;;;;;5113278;28;19908;-69
2021/12/05 18:48:46;;;;;;;;;;;;;;;;;;5113144;28;19907;-70
2021/12/05 18:51:12;;;;;;;;;;;;;;;;;;5113294;28;19904;-75
2021/12/05 18:53:38;;;;;;;;;;;;;;;;;;5113246;28;19908;-70
2021/12/05 18:56:04;;;;;;;;;;;;;;;;;;5113161;28;20002;-75
2021/12/05 18:58:30;;;;;;;;;;;;;;;;;;5113147;28;19957;-75
2021/12/05 19:06:30;;;;;;;;;;;;;;;;;;5113069;28;19910;-71
2021/12/05 19:11:44;;;;;;;;;;;;;;;;;;5113368;28;20278;-68
2021/12/05 19:14:10;;;;;;;;;;;;;;;;;;5113048;28;19904;-77
2021/12/05 19:16:36;;;;;;;;;;;;;;;;;;5112854;28;20545;-75
2021/12/05 19:19:03;;;;;;;;;;;;;;;;;;5112885;28;19911;-75
2021/12/05 19:21:29;;;;;;;;;;;;;;;;;;5113031;28;20304;-73
2021/12/05 19:23:57;;;;;;;;;;;;;;;;;;5113114;28;20372;-76
2021/12/05 19:26:23;;;;;;;;;;;;;;;;;;5112885;28;19903;-76
2021/12/05 19:28:49;;;;;;;;;;;;;;;;;;5113108;28;20468;-76
2021/12/05 19:31:15;;;;;;;;;;;;;;;;;;5113756;28;20247;-76
2021/12/05 19:33:41;;;;;;;;;;;;;;;;;;5116398;28;19907;-75
2021/12/05 19:36:13;;;;;;;;;;;;;;;;;;5116133;28;20347;-76
2021/12/05 19:38:39;;;;;;;;;;;;;;;;;;5116284;28;19949;-71
2021/12/05 19:41:05;;;;;;;;;;;;;;;;;;5116358;28;20259;-75
2021/12/05 19:43:31;;;;;;;;;;;;;;;;;;5116255;28;19910;-72
2021/12/05 19:45:57;;;;;;;;;;;;;;;;;;5116373;28;19904;-77
2021/12/05 19:48:22;;;;;;;;;;;;;;;;;;5098085;28;19916;-75
2021/12/05 19:50:48;;;;;;;;;;;;;;;;;;5116710;28;20275;-68
2021/12/05 19:53:14;;;;;;;;;;;;;;;;;;5116353;28;19965;-64
2021/12/05 19:55:40;;;;;;;;;;;;;;;;;;5116473;28;19957;-64
2021/12/05 19:58:06;;;;;;;;;;;;;;;;;;5116142;28;19972;-64
2021/12/05 20:00:32;;;;;;;;;;;;;;;;;;5096187;28;19915;-76
2021/12/05 20:02:58;;;;;;;;;;;;;;;;;;5115781;28;19903;-75
2021/12/05 20:05:24;;;;;;;;;;;;;;;;;;5115802;28;19907;-76
2021/12/05 20:07:50;;;;;;;;;;;;;;;;;;5098287;28;20350;-73
2021/12/05 20:10:16;;;;;;;;;;;;;;;;;;5127384;28;19954;-76
2021/12/05 20:12:42;;;;;;;;;;;;;;;;;;5124843;28;20270;-76
2021/12/05 20:15:07;;;;;;;;;;;;;;;;;;5116479;28;20379;-76
2021/12/05 20:17:33;;;;;;;;;;;;;;;;;;5097160;28;19915;-74
2021/12/05 20:20:01;;;;;;;;;;;;;;;;;;5115405;28;19915;-76
2021/12/05 20:22:27;;;;;;;;;;;;;;;;;;5115382;28;19915;-73
2021/12/05 20:24:53;;;;;;;;;;;;;;;;;;5115039;28;19900;-74
2021/12/05 20:27:19;;;;;;;;;;;;;;;;;;5114612;28;19910;-75
2021/12/05 20:29:45;;;;;;;;;;;;;;;;;;5114851;28;19904;-74
2021/12/05 20:32:11;;;;;;;;;;;;;;;;;;5115149;28;19904;-72
2021/12/05 20:34:38;;;;;;;;;;;;;;;;;;5115000;28;19910;-71
2021/12/05 20:37:04;;;;;;;;;;;;;;;;;;5115127;28;19908;-77
2021/12/05 20:39:29;;;;;;;;;;;;;;;;;;5106293;28;19935;-76
2021/12/05 20:41:55;;;;;;;;;;;;;;;;;;5094601;28;20371;-70
2021/12/05 20:44:23;;;;;;;;;;;;;;;;;;5093468;28;20370;-77
2021/12/05 20:46:49;;;;;;;;;;;;;;;;;;5108198;28;20316;-68
2021/12/05 20:49:15;;;;;;;;;;;;;;;;;;5114814;28;19908;-76
2021/12/05 20:51:41;;;;;;;;;;;;;;;;;;5114711;28;19904;-77
2021/12/05 20:54:07;;;;;;;;;;;;;;;;;;5114816;28;19904;-72
2021/12/05 20:56:36;;;;;;;;;;;;;;;;;;5114587;28;20319;-72
2021/12/05 20:59:02;;;;;;;;;;;;;;;;;;5114699;28;19965;-75
2021/12/05 21:01:29;;;;;;;;;;;;;;;;;;5114838;28;20388;-76
2021/12/05 21:03:57;;;;;;;;;;;;;;;;;;5114813;28;19904;-78
2021/12/05 21:06:23;;;;;;;;;;;;;;;;;;5114531;28;20266;-71
2021/12/05 21:08:49;;;;;;;;;;;;;;;;;;5114309;28;20048;-76
2021/12/05 21:11:14;;;;;;;;;;;;;;;;;;5114580;28;20044;-77
2021/12/05 21:13:40;;;;;;;;;;;;;;;;;;5114369;28;20007;-75
2021/12/05 21:16:06;;;;;;;;;;;;;;;;;;5114202;28;19961;-75
2021/12/05 21:18:33;;;;;;;;;;;;;;;;;;5115337;28;19912;-79
2021/12/05 21:20:59;;;;;;;;;;;;;;;;;;5121084;28;19904;-77
2021/12/05 21:23:25;;;;;;;;;;;;;;;;;;5114477;28;20255;-69
2021/12/05 21:25:51;;;;;;;;;;;;;;;;;;5114164;28;19903;-66
2021/12/05 21:28:17;;;;;;;;;;;;;;;;;;5114047;28;19904;-76
2021/12/05 21:30:43;;;;;;;;;;;;;;;;;;5114253;28;20369;-71
2021/12/05 21:33:11;;;;;;;;;;;;;;;;;;5114123;28;20414;-79
2021/12/05 21:35:37;;;;;;;;;;;;;;;;;;5114143;28;19996;-74
2021/12/05 21:38:03;;;;;;;;;;;;;;;;;;5113918;28;20281;-75
2021/12/05 21:40:29;;;;;;;;;;;;;;;;;;5096439;28;19903;-66
2021/12/05 21:42:55;;;;;;;;;;;;;;;;;;5093274;28;19947;-72
2021/12/05 21:45:21;;;;;;;;;;;;;;;;;;5075292;28;19943;-77
2021/12/05 21:47:47;;;;;;;;;;;;;;;;;;5093287;28;19938;-79
2021/12/05 21:50:14;;;;;;;;;;;;;;;;;;5093502;28;19904;-68
2021/12/05 21:52:40;;;;;;;;;;;;;;;;;;5093294;28;19904;-75
2021/12/05 21:55:06;;;;;;;;;;;;;;;;;;5093041;28;19911;-73
2021/12/05 21:57:32;;;;;;;;;;;;;;;;;;5093027;28;20267;-78
2021/12/05 21:59:58;;;;;;;;;;;;;;;;;;5098557;28;19908;-75
2021/12/05 22:02:24;;;;;;;;;;;;;;;;;;5112256;28;19998;-78
2021/12/05 22:04:50;;;;;;;;;;;;;;;;;;5111831;28;20409;-72
2021/12/05 22:07:16;;;;;;;;;;;;;;;;;;5113343;28;20002;-78
2021/12/05 22:09:42;;;;;;;;;;;;;;;;;;5113393;28;19941;-65
2021/12/05 22:12:08;;;;;;;;;;;;;;;;;;5113593;28;20379;-73
2021/12/05 22:14:33;;;;;;;;;;;;;;;;;;5095194;28;20456;-72
2021/12/05 22:17:00;;;;;;;;;;;;;;;;;;5113456;28;20406;-78
2021/12/05 22:19:28;;;;;;;;;;;;;;;;;;5113010;28;19916;-74
2021/12/05 22:21:54;;;;;;;;;;;;;;;;;;5094548;28;20365;-70
2021/12/05 22:24:20;;;;;;;;;;;;;;;;;;5094403;28;19992;-67
2021/12/05 22:26:45;;;;;;;;;;;;;;;;;;5112459;28;20378;-77
2021/12/05 22:29:11;;;;;;;;;;;;;;;;;;5112910;28;19907;-75
2021/12/05 22:31:37;;;;;;;;;;;;;;;;;;5112748;28;20362;-66
2021/12/05 22:34:03;;;;;;;;;;;;;;;;;;5112782;28;19912;-75
2021/12/05 22:36:29;;;;;;;;;;;;;;;;;;5113056;28;19907;-71
2021/12/05 22:38:55;;;;;;;;;;;;;;;;;;5108597;28;20355;-77
2021/12/05 22:41:21;;;;;;;;;;;;;;;;;;5074145;28;19908;-69